sensor_id;sensor_type;location;lat;lon;timestamp;temperature;humidity
8099;DHT22;4092;47.876;9.372;2023-05-27T00:01:21;13.90;99.90
8099;DHT22;4092;47.876;9.372;2023-05-27T00:03:48;13.90;99.90
8099;DHT22;4092;47.876;9.372;2023-05-27T00:06:15;13.90;99.90
8099;DHT22;4092;47.876;9.372;2023-05-27T00:08:42;13.90;99.90
8099;DHT22;4092;47.876;9.372;2023-05-27T00:11:09;13.90;99.90
8099;DHT22;4092;47.876;9.372;2023-05-27T00:13:37;13.80;99.90
8099;DHT22;4092;47.876;9.372;2023-05-27T00:16:04;13.80;99.90
8099;DHT22;4092;47.876;9.372;2023-05-27T00:18:35;13.80;99.90
8099;DHT22;4092;47.876;9.372;2023-05-27T00:21:02;13.70;99.90
8099;DHT22;4092;47.876;9.372;2023-05-27T00:23:30;13.70;99.90
8099;DHT22;4092;47.876;9.372;2023-05-27T00:25:56;13.60;99.90
8099;DHT22;4092;47.876;9.372;2023-05-27T00:28:24;13.60;99.90
8099;DHT22;4092;47.876;9.372;2023-05-27T00:30:57;13.60;99.90
8099;DHT22;4092;47.876;9.372;2023-05-27T00:33:25;13.50;99.90
8099;DHT22;4092;47.876;9.372;2023-05-27T00:35:54;13.50;99.90
8099;DHT22;4092;47.876;9.372;2023-05-27T00:38:22;13.50;99.90
8099;DHT22;4092;47.876;9.372;2023-05-27T00:40:49;13.40;99.90
8099;DHT22;4092;47.876;9.372;2023-05-27T00:43:19;13.40;99.90
8099;DHT22;4092;47.876;9.372;2023-05-27T00:45:46;13.40;99.90
8099;DHT22;4092;47.876;9.372;2023-05-27T00:48:14;13.30;99.90
8099;DHT22;4092;47.876;9.372;2023-05-27T00:50:41;13.30;99.90
8099;DHT22;4092;47.876;9.372;2023-05-27T00:53:10;13.30;99.90
8099;DHT22;4092;47.876;9.372;2023-05-27T00:55:37;13.20;99.90
8099;DHT22;4092;47.876;9.372;2023-05-27T00:58:05;13.20;99.90
8099;DHT22;4092;47.876;9.372;2023-05-27T01:00:34;13.20;99.90
8099;DHT22;4092;47.876;9.372;2023-05-27T01:03:03;13.10;99.90
8099;DHT22;4092;47.876;9.372;2023-05-27T01:05:32;13.10;99.90
8099;DHT22;4092;47.876;9.372;2023-05-27T01:08:12;13.10;99.90
8099;DHT22;4092;47.876;9.372;2023-05-27T01:10:48;13.10;99.90
8099;DHT22;4092;47.876;9.372;2023-05-27T01:13:18;13.00;99.90
8099;DHT22;4092;47.876;9.372;2023-05-27T01:15:51;13.00;99.90
8099;DHT22;4092;47.876;9.372;2023-05-27T01:18:20;12.90;99.90
8099;DHT22;4092;47.876;9.372;2023-05-27T01:20:48;12.80;99.90
8099;DHT22;4092;47.876;9.372;2023-05-27T01:23:20;12.80;99.90
8099;DHT22;4092;47.876;9.372;2023-05-27T01:25:47;12.80;99.90
8099;DHT22;4092;47.876;9.372;2023-05-27T01:28:14;12.70;99.90
8099;DHT22;4092;47.876;9.372;2023-05-27T01:30:44;12.70;99.90
8099;DHT22;4092;47.876;9.372;2023-05-27T01:33:20;12.70;99.90
8099;DHT22;4092;47.876;9.372;2023-05-27T01:35:52;12.60;99.90
8099;DHT22;4092;47.876;9.372;2023-05-27T01:38:24;12.60;99.90
8099;DHT22;4092;47.876;9.372;2023-05-27T01:40:53;12.60;99.90
8099;DHT22;4092;47.876;9.372;2023-05-27T01:43:21;12.50;99.90
8099;DHT22;4092;47.876;9.372;2023-05-27T01:45:50;12.50;99.90
8099;DHT22;4092;47.876;9.372;2023-05-27T01:48:18;12.50;99.90
8099;DHT22;4092;47.876;9.372;2023-05-27T01:50:45;12.40;99.90
8099;DHT22;4092;47.876;9.372;2023-05-27T01:53:12;12.40;99.90
8099;DHT22;4092;47.876;9.372;2023-05-27T01:55:41;12.40;99.90
8099;DHT22;4092;47.876;9.372;2023-05-27T01:58:08;12.30;99.90
8099;DHT22;4092;47.876;9.372;2023-05-27T02:00:35;12.30;99.90
8099;DHT22;4092;47.876;9.372;2023-05-27T02:03:02;12.30;99.90
8099;DHT22;4092;47.876;9.372;2023-05-27T02:05:29;12.30;99.90
8099;DHT22;4092;47.876;9.372;2023-05-27T02:08:04;12.30;99.90
8099;DHT22;4092;47.876;9.372;2023-05-27T02:10:32;12.30;99.90
8099;DHT22;4092;47.876;9.372;2023-05-27T02:13:00;12.20;99.90
8099;DHT22;4092;47.876;9.372;2023-05-27T02:15:27;12.20;99.90
8099;DHT22;4092;47.876;9.372;2023-05-27T02:17:54;12.20;99.90
8099;DHT22;4092;47.876;9.372;2023-05-27T02:20:21;12.20;99.90
8099;DHT22;4092;47.876;9.372;2023-05-27T02:22:49;12.10;99.90
8099;DHT22;4092;47.876;9.372;2023-05-27T02:25:19;12.10;99.90
8099;DHT22;4092;47.876;9.372;2023-05-27T02:27:47;12.10;99.90
8099;DHT22;4092;47.876;9.372;2023-05-27T02:30:16;12.10;99.90
8099;DHT22;4092;47.876;9.372;2023-05-27T02:32:44;12.00;99.90
8099;DHT22;4092;47.876;9.372;2023-05-27T02:35:13;12.00;99.90
8099;DHT22;4092;47.876;9.372;2023-05-27T02:37:40;12.00;99.90
8099;DHT22;4092;47.876;9.372;2023-05-27T02:40:08;12.00;99.90
8099;DHT22;4092;47.876;9.372;2023-05-27T02:42:36;12.00;99.90
8099;DHT22;4092;47.876;9.372;2023-05-27T02:45:04;12.00;99.90
8099;DHT22;4092;47.876;9.372;2023-05-27T02:47:35;12.00;99.90
8099;DHT22;4092;47.876;9.372;2023-05-27T02:50:03;11.90;99.90
8099;DHT22;4092;47.876;9.372;2023-05-27T02:52:32;11.70;99.90
8099;DHT22;4092;47.876;9.372;2023-05-27T02:54:59;11.80;99.90
8099;DHT22;4092;47.876;9.372;2023-05-27T02:57:26;11.70;99.90
8099;DHT22;4092;47.876;9.372;2023-05-27T02:59:53;11.70;99.90
8099;DHT22;4092;47.876;9.372;2023-05-27T03:02:20;11.70;99.90
8099;DHT22;4092;47.876;9.372;2023-05-27T03:04:49;11.70;99.90
8099;DHT22;4092;47.876;9.372;2023-05-27T03:07:16;11.70;99.90
8099;DHT22;4092;47.876;9.372;2023-05-27T03:09:44;11.60;99.90
8099;DHT22;4092;47.876;9.372;2023-05-27T03:12:12;11.50;99.90
8099;DHT22;4092;47.876;9.372;2023-05-27T03:14:39;11.40;99.90
8099;DHT22;4092;47.876;9.372;2023-05-27T03:17:08;11.50;99.90
8099;DHT22;4092;47.876;9.372;2023-05-27T03:19:35;11.40;99.90
8099;DHT22;4092;47.876;9.372;2023-05-27T03:22:04;11.30;99.90
8099;DHT22;4092;47.876;9.372;2023-05-27T03:24:32;11.30;99.90
8099;DHT22;4092;47.876;9.372;2023-05-27T03:27:02;11.30;99.90
8099;DHT22;4092;47.876;9.372;2023-05-27T03:29:31;11.30;99.90
8099;DHT22;4092;47.876;9.372;2023-05-27T03:32:01;11.30;99.90
8099;DHT22;4092;47.876;9.372;2023-05-27T03:34:28;11.30;99.90
8099;DHT22;4092;47.876;9.372;2023-05-27T03:36:57;11.20;99.90
8099;DHT22;4092;47.876;9.372;2023-05-27T03:39:28;11.20;99.90
8099;DHT22;4092;47.876;9.372;2023-05-27T03:41:55;11.10;99.90
8099;DHT22;4092;47.876;9.372;2023-05-27T03:44:22;11.00;99.90
8099;DHT22;4092;47.876;9.372;2023-05-27T03:46:52;11.00;99.90
8099;DHT22;4092;47.876;9.372;2023-05-27T03:49:20;10.90;99.90
8099;DHT22;4092;47.876;9.372;2023-05-27T03:51:48;10.90;99.90
8099;DHT22;4092;47.876;9.372;2023-05-27T03:54:15;10.80;99.90
8099;DHT22;4092;47.876;9.372;2023-05-27T03:56:44;10.80;99.90
8099;DHT22;4092;47.876;9.372;2023-05-27T03:59:10;10.80;99.90
8099;DHT22;4092;47.876;9.372;2023-05-27T04:01:40;10.80;99.90
8099;DHT22;4092;47.876;9.372;2023-05-27T04:04:08;10.70;99.90
8099;DHT22;4092;47.876;9.372;2023-05-27T04:06:35;10.70;99.90
8099;DHT22;4092;47.876;9.372;2023-05-27T04:09:02;10.80;99.90
8099;DHT22;4092;47.876;9.372;2023-05-27T04:11:32;10.80;99.90
8099;DHT22;4092;47.876;9.372;2023-05-27T04:14:01;10.80;99.90
8099;DHT22;4092;47.876;9.372;2023-05-27T04:16:31;10.80;99.90
8099;DHT22;4092;47.876;9.372;2023-05-27T04:18:59;10.80;99.90
8099;DHT22;4092;47.876;9.372;2023-05-27T04:21:27;10.70;99.90
8099;DHT22;4092;47.876;9.372;2023-05-27T04:23:55;10.70;99.90
8099;DHT22;4092;47.876;9.372;2023-05-27T04:26:25;10.70;99.90
8099;DHT22;4092;47.876;9.372;2023-05-27T04:28:53;10.70;99.90
8099;DHT22;4092;47.876;9.372;2023-05-27T04:31:21;10.80;99.90
8099;DHT22;4092;47.876;9.372;2023-05-27T04:33:54;10.80;99.90
8099;DHT22;4092;47.876;9.372;2023-05-27T04:36:21;10.80;99.90
8099;DHT22;4092;47.876;9.372;2023-05-27T04:38:51;10.80;99.90
8099;DHT22;4092;47.876;9.372;2023-05-27T04:41:20;10.80;99.90
8099;DHT22;4092;47.876;9.372;2023-05-27T04:43:53;10.80;99.90
8099;DHT22;4092;47.876;9.372;2023-05-27T04:46:24;10.90;99.90
8099;DHT22;4092;47.876;9.372;2023-05-27T04:48:55;10.90;99.90
8099;DHT22;4092;47.876;9.372;2023-05-27T04:51:24;11.00;99.90
8099;DHT22;4092;47.876;9.372;2023-05-27T04:53:51;11.00;99.90
8099;DHT22;4092;47.876;9.372;2023-05-27T04:56:19;11.00;99.90
8099;DHT22;4092;47.876;9.372;2023-05-27T04:58:47;11.00;99.90
8099;DHT22;4092;47.876;9.372;2023-05-27T05:01:14;11.10;99.90
8099;DHT22;4092;47.876;9.372;2023-05-27T05:03:45;11.10;99.90
8099;DHT22;4092;47.876;9.372;2023-05-27T05:06:19;11.20;99.90
8099;DHT22;4092;47.876;9.372;2023-05-27T05:08:46;11.20;99.90
8099;DHT22;4092;47.876;9.372;2023-05-27T05:11:15;11.20;99.90
8099;DHT22;4092;47.876;9.372;2023-05-27T05:13:45;11.20;99.90
8099;DHT22;4092;47.876;9.372;2023-05-27T05:16:14;11.20;99.90
8099;DHT22;4092;47.876;9.372;2023-05-27T05:18:41;11.20;99.90
8099;DHT22;4092;47.876;9.372;2023-05-27T05:21:09;11.30;99.90
8099;DHT22;4092;47.876;9.372;2023-05-27T05:23:36;11.30;99.90
8099;DHT22;4092;47.876;9.372;2023-05-27T05:26:05;11.40;99.90
8099;DHT22;4092;47.876;9.372;2023-05-27T05:28:33;11.40;99.90
8099;DHT22;4092;47.876;9.372;2023-05-27T05:31:00;11.40;99.90
8099;DHT22;4092;47.876;9.372;2023-05-27T05:33:28;11.50;99.90
8099;DHT22;4092;47.876;9.372;2023-05-27T05:35:55;11.50;99.90
8099;DHT22;4092;47.876;9.372;2023-05-27T05:38:24;11.60;99.90
8099;DHT22;4092;47.876;9.372;2023-05-27T05:40:51;11.70;99.90
8099;DHT22;4092;47.876;9.372;2023-05-27T05:43:19;11.70;99.90
8099;DHT22;4092;47.876;9.372;2023-05-27T05:45:50;11.80;99.90
8099;DHT22;4092;47.876;9.372;2023-05-27T05:48:18;11.80;99.90
8099;DHT22;4092;47.876;9.372;2023-05-27T05:50:48;11.90;99.90
8099;DHT22;4092;47.876;9.372;2023-05-27T05:53:15;12.00;99.90
8099;DHT22;4092;47.876;9.372;2023-05-27T05:55:44;12.00;99.90
8099;DHT22;4092;47.876;9.372;2023-05-27T05:58:11;12.10;99.90
8099;DHT22;4092;47.876;9.372;2023-05-27T06:00:39;12.10;99.90
8099;DHT22;4092;47.876;9.372;2023-05-27T06:03:07;12.30;99.90
8099;DHT22;4092;47.876;9.372;2023-05-27T06:05:34;12.30;99.90
8099;DHT22;4092;47.876;9.372;2023-05-27T06:08:01;12.40;99.90
8099;DHT22;4092;47.876;9.372;2023-05-27T06:10:28;12.40;99.90
8099;DHT22;4092;47.876;9.372;2023-05-27T06:12:59;12.50;99.90
8099;DHT22;4092;47.876;9.372;2023-05-27T06:15:26;12.60;99.90
8099;DHT22;4092;47.876;9.372;2023-05-27T06:17:53;12.70;99.90
8099;DHT22;4092;47.876;9.372;2023-05-27T06:20:20;12.70;99.90
8099;DHT22;4092;47.876;9.372;2023-05-27T06:22:48;12.80;99.90
8099;DHT22;4092;47.876;9.372;2023-05-27T06:25:16;12.90;99.90
8099;DHT22;4092;47.876;9.372;2023-05-27T06:27:43;13.00;99.90
8099;DHT22;4092;47.876;9.372;2023-05-27T06:30:12;13.10;99.90
8099;DHT22;4092;47.876;9.372;2023-05-27T06:32:39;13.20;99.90
8099;DHT22;4092;47.876;9.372;2023-05-27T06:35:07;13.40;99.90
8099;DHT22;4092;47.876;9.372;2023-05-27T06:37:34;13.50;99.90
8099;DHT22;4092;47.876;9.372;2023-05-27T06:40:01;13.60;99.90
8099;DHT22;4092;47.876;9.372;2023-05-27T06:42:29;13.70;99.90
8099;DHT22;4092;47.876;9.372;2023-05-27T06:44:56;13.80;99.90
8099;DHT22;4092;47.876;9.372;2023-05-27T06:47:25;13.90;99.90
8099;DHT22;4092;47.876;9.372;2023-05-27T06:49:52;14.00;99.90
8099;DHT22;4092;47.876;9.372;2023-05-27T06:52:19;14.10;99.90
8099;DHT22;4092;47.876;9.372;2023-05-27T06:54:47;14.20;99.90
8099;DHT22;4092;47.876;9.372;2023-05-27T06:57:14;14.20;99.90
8099;DHT22;4092;47.876;9.372;2023-05-27T06:59:41;14.30;99.90
8099;DHT22;4092;47.876;9.372;2023-05-27T07:02:08;14.30;99.90
8099;DHT22;4092;47.876;9.372;2023-05-27T07:04:44;14.50;99.90
8099;DHT22;4092;47.876;9.372;2023-05-27T07:07:14;14.60;99.90
8099;DHT22;4092;47.876;9.372;2023-05-27T07:09:41;14.70;99.90
8099;DHT22;4092;47.876;9.372;2023-05-27T07:12:08;14.80;99.90
8099;DHT22;4092;47.876;9.372;2023-05-27T07:14:36;14.90;99.90
8099;DHT22;4092;47.876;9.372;2023-05-27T07:17:03;14.90;99.90
8099;DHT22;4092;47.876;9.372;2023-05-27T07:19:30;15.00;99.90
8099;DHT22;4092;47.876;9.372;2023-05-27T07:21:59;15.20;99.90
8099;DHT22;4092;47.876;9.372;2023-05-27T07:24:26;15.30;99.90
8099;DHT22;4092;47.876;9.372;2023-05-27T07:26:56;15.40;99.90
8099;DHT22;4092;47.876;9.372;2023-05-27T07:29:23;15.50;99.90
8099;DHT22;4092;47.876;9.372;2023-05-27T07:31:50;15.60;99.90
8099;DHT22;4092;47.876;9.372;2023-05-27T07:34:17;15.70;99.90
8099;DHT22;4092;47.876;9.372;2023-05-27T07:36:47;15.80;99.90
8099;DHT22;4092;47.876;9.372;2023-05-27T07:39:16;15.80;99.90
8099;DHT22;4092;47.876;9.372;2023-05-27T07:41:46;15.90;99.90
8099;DHT22;4092;47.876;9.372;2023-05-27T07:44:13;16.10;99.90
8099;DHT22;4092;47.876;9.372;2023-05-27T07:46:40;16.20;99.90
8099;DHT22;4092;47.876;9.372;2023-05-27T07:49:07;16.20;99.90
8099;DHT22;4092;47.876;9.372;2023-05-27T07:51:34;16.30;99.90
8099;DHT22;4092;47.876;9.372;2023-05-27T07:54:02;16.40;99.90
8099;DHT22;4092;47.876;9.372;2023-05-27T07:56:30;16.50;99.90
8099;DHT22;4092;47.876;9.372;2023-05-27T07:58:57;16.60;99.90
8099;DHT22;4092;47.876;9.372;2023-05-27T08:01:24;16.60;99.90
8099;DHT22;4092;47.876;9.372;2023-05-27T08:03:56;16.70;99.90
8099;DHT22;4092;47.876;9.372;2023-05-27T08:06:23;16.80;99.90
8099;DHT22;4092;47.876;9.372;2023-05-27T08:08:50;17.00;99.90
8099;DHT22;4092;47.876;9.372;2023-05-27T08:11:17;17.10;99.90
8099;DHT22;4092;47.876;9.372;2023-05-27T08:13:50;17.20;99.90
8099;DHT22;4092;47.876;9.372;2023-05-27T08:16:17;17.30;99.90
8099;DHT22;4092;47.876;9.372;2023-05-27T08:18:44;17.30;99.90
8099;DHT22;4092;47.876;9.372;2023-05-27T08:21:12;17.30;99.90
8099;DHT22;4092;47.876;9.372;2023-05-27T08:23:39;17.40;99.90
8099;DHT22;4092;47.876;9.372;2023-05-27T08:26:06;17.60;99.90
8099;DHT22;4092;47.876;9.372;2023-05-27T08:28:33;17.60;99.90
8099;DHT22;4092;47.876;9.372;2023-05-27T08:31:04;17.60;99.90
8099;DHT22;4092;47.876;9.372;2023-05-27T08:33:31;17.70;99.90
8099;DHT22;4092;47.876;9.372;2023-05-27T08:36:01;17.70;99.90
8099;DHT22;4092;47.876;9.372;2023-05-27T08:38:28;17.80;99.90
8099;DHT22;4092;47.876;9.372;2023-05-27T08:40:56;17.90;99.90
8099;DHT22;4092;47.876;9.372;2023-05-27T08:43:23;18.00;99.90
8099;DHT22;4092;47.876;9.372;2023-05-27T08:45:50;18.10;99.90
8099;DHT22;4092;47.876;9.372;2023-05-27T08:48:19;18.20;99.90
8099;DHT22;4092;47.876;9.372;2023-05-27T08:50:46;18.20;99.90
8099;DHT22;4092;47.876;9.372;2023-05-27T08:53:14;18.30;99.90
8099;DHT22;4092;47.876;9.372;2023-05-27T08:55:44;18.40;99.90
8099;DHT22;4092;47.876;9.372;2023-05-27T08:58:13;18.50;99.90
8099;DHT22;4092;47.876;9.372;2023-05-27T09:00:42;18.60;99.90
8099;DHT22;4092;47.876;9.372;2023-05-27T09:03:10;18.80;99.90
8099;DHT22;4092;47.876;9.372;2023-05-27T09:05:40;18.90;99.90
8099;DHT22;4092;47.876;9.372;2023-05-27T09:08:10;19.00;99.90
8099;DHT22;4092;47.876;9.372;2023-05-27T09:10:37;19.00;99.90
8099;DHT22;4092;47.876;9.372;2023-05-27T09:13:04;19.00;99.90
8099;DHT22;4092;47.876;9.372;2023-05-27T09:15:32;19.10;99.90
8099;DHT22;4092;47.876;9.372;2023-05-27T09:18:00;19.10;99.90
8099;DHT22;4092;47.876;9.372;2023-05-27T09:20:30;19.40;99.90
8099;DHT22;4092;47.876;9.372;2023-05-27T09:23:00;19.40;99.90
8099;DHT22;4092;47.876;9.372;2023-05-27T09:25:27;19.50;99.90
8099;DHT22;4092;47.876;9.372;2023-05-27T09:27:55;19.60;99.90
8099;DHT22;4092;47.876;9.372;2023-05-27T09:30:24;19.80;99.90
8099;DHT22;4092;47.876;9.372;2023-05-27T09:33:00;19.90;99.90
8099;DHT22;4092;47.876;9.372;2023-05-27T09:35:28;19.90;99.90
8099;DHT22;4092;47.876;9.372;2023-05-27T09:38:06;19.90;99.90
8099;DHT22;4092;47.876;9.372;2023-05-27T09:40:35;20.00;99.90
8099;DHT22;4092;47.876;9.372;2023-05-27T09:43:03;20.10;99.90
8099;DHT22;4092;47.876;9.372;2023-05-27T09:45:30;20.10;99.90
8099;DHT22;4092;47.876;9.372;2023-05-27T09:47:58;20.20;99.90
8099;DHT22;4092;47.876;9.372;2023-05-27T09:50:28;20.30;99.90
8099;DHT22;4092;47.876;9.372;2023-05-27T09:52:57;20.50;99.90
8099;DHT22;4092;47.876;9.372;2023-05-27T09:55:30;20.70;99.90
8099;DHT22;4092;47.876;9.372;2023-05-27T09:57:57;20.80;99.90
8099;DHT22;4092;47.876;9.372;2023-05-27T10:00:24;20.90;99.90
8099;DHT22;4092;47.876;9.372;2023-05-27T10:02:53;20.80;99.90
8099;DHT22;4092;47.876;9.372;2023-05-27T10:05:23;20.80;99.90
8099;DHT22;4092;47.876;9.372;2023-05-27T10:07:51;20.90;99.90
8099;DHT22;4092;47.876;9.372;2023-05-27T10:10:18;20.90;99.90
8099;DHT22;4092;47.876;9.372;2023-05-27T10:12:50;20.90;99.90
8099;DHT22;4092;47.876;9.372;2023-05-27T10:15:24;20.80;99.90
8099;DHT22;4092;47.876;9.372;2023-05-27T10:17:53;20.80;99.90
8099;DHT22;4092;47.876;9.372;2023-05-27T10:20:28;20.80;99.90
8099;DHT22;4092;47.876;9.372;2023-05-27T10:22:57;20.80;99.90
8099;DHT22;4092;47.876;9.372;2023-05-27T10:25:38;20.80;99.90
8099;DHT22;4092;47.876;9.372;2023-05-27T10:28:07;20.90;99.90
8099;DHT22;4092;47.876;9.372;2023-05-27T10:30:44;21.00;99.90
8099;DHT22;4092;47.876;9.372;2023-05-27T10:33:11;20.90;99.90
8099;DHT22;4092;47.876;9.372;2023-05-27T10:35:42;20.90;99.90
8099;DHT22;4092;47.876;9.372;2023-05-27T10:38:16;21.00;99.90
8099;DHT22;4092;47.876;9.372;2023-05-27T10:40:45;21.20;99.90
8099;DHT22;4092;47.876;9.372;2023-05-27T10:43:17;21.30;99.90
8099;DHT22;4092;47.876;9.372;2023-05-27T10:45:45;21.30;99.90
8099;DHT22;4092;47.876;9.372;2023-05-27T10:48:17;21.50;99.90
8099;DHT22;4092;47.876;9.372;2023-05-27T10:50:51;21.60;99.90
8099;DHT22;4092;47.876;9.372;2023-05-27T10:53:19;21.60;99.90
8099;DHT22;4092;47.876;9.372;2023-05-27T10:55:49;21.70;99.90
8099;DHT22;4092;47.876;9.372;2023-05-27T10:58:21;21.60;99.90
8099;DHT22;4092;47.876;9.372;2023-05-27T11:00:48;21.60;99.90
8099;DHT22;4092;47.876;9.372;2023-05-27T11:03:17;21.80;99.90
8099;DHT22;4092;47.876;9.372;2023-05-27T11:05:45;21.90;99.90
8099;DHT22;4092;47.876;9.372;2023-05-27T11:08:13;22.00;99.90
8099;DHT22;4092;47.876;9.372;2023-05-27T11:10:40;22.00;99.90
8099;DHT22;4092;47.876;9.372;2023-05-27T11:13:08;22.00;99.90
8099;DHT22;4092;47.876;9.372;2023-05-27T11:15:39;22.00;99.90
8099;DHT22;4092;47.876;9.372;2023-05-27T11:18:07;22.00;99.90
8099;DHT22;4092;47.876;9.372;2023-05-27T11:20:35;22.10;99.90
8099;DHT22;4092;47.876;9.372;2023-05-27T11:23:04;22.20;99.90
8099;DHT22;4092;47.876;9.372;2023-05-27T11:25:41;22.30;99.90
8099;DHT22;4092;47.876;9.372;2023-05-27T11:28:14;22.40;99.90
8099;DHT22;4092;47.876;9.372;2023-05-27T11:30:43;22.50;99.90
8099;DHT22;4092;47.876;9.372;2023-05-27T11:33:10;22.60;99.90
8099;DHT22;4092;47.876;9.372;2023-05-27T11:35:37;22.50;99.90
8099;DHT22;4092;47.876;9.372;2023-05-27T11:38:04;22.60;99.90
8099;DHT22;4092;47.876;9.372;2023-05-27T11:40:35;22.70;99.90
8099;DHT22;4092;47.876;9.372;2023-05-27T11:43:04;22.70;99.90
8099;DHT22;4092;47.876;9.372;2023-05-27T11:45:35;22.70;99.90
8099;DHT22;4092;47.876;9.372;2023-05-27T11:48:03;22.60;99.90
8099;DHT22;4092;47.876;9.372;2023-05-27T11:50:34;22.60;99.90
8099;DHT22;4092;47.876;9.372;2023-05-27T11:53:03;22.50;99.90
8099;DHT22;4092;47.876;9.372;2023-05-27T11:55:32;22.70;99.90
8099;DHT22;4092;47.876;9.372;2023-05-27T11:57:59;22.90;99.90
8099;DHT22;4092;47.876;9.372;2023-05-27T12:00:27;23.00;99.90
8099;DHT22;4092;47.876;9.372;2023-05-27T12:02:55;23.10;99.90
8099;DHT22;4092;47.876;9.372;2023-05-27T12:05:23;23.10;99.90
8099;DHT22;4092;47.876;9.372;2023-05-27T12:07:51;23.20;99.90
8099;DHT22;4092;47.876;9.372;2023-05-27T12:10:19;23.30;99.90
8099;DHT22;4092;47.876;9.372;2023-05-27T12:12:46;23.40;99.90
8099;DHT22;4092;47.876;9.372;2023-05-27T12:15:14;23.50;99.90
8099;DHT22;4092;47.876;9.372;2023-05-27T12:17:43;23.50;99.90
8099;DHT22;4092;47.876;9.372;2023-05-27T12:20:11;23.70;99.90
8099;DHT22;4092;47.876;9.372;2023-05-27T12:22:39;23.80;99.90
8099;DHT22;4092;47.876;9.372;2023-05-27T12:25:09;24.10;99.90
8099;DHT22;4092;47.876;9.372;2023-05-27T12:27:36;24.20;99.90
8099;DHT22;4092;47.876;9.372;2023-05-27T12:30:04;24.20;99.90
8099;DHT22;4092;47.876;9.372;2023-05-27T12:32:33;24.20;99.90
8099;DHT22;4092;47.876;9.372;2023-05-27T12:35:00;24.30;99.90
8099;DHT22;4092;47.876;9.372;2023-05-27T12:37:30;24.30;99.90
8099;DHT22;4092;47.876;9.372;2023-05-27T12:39:59;24.30;99.90
8099;DHT22;4092;47.876;9.372;2023-05-27T12:42:26;24.30;99.90
8099;DHT22;4092;47.876;9.372;2023-05-27T12:44:54;24.40;99.90
8099;DHT22;4092;47.876;9.372;2023-05-27T12:47:20;24.50;99.90
8099;DHT22;4092;47.876;9.372;2023-05-27T12:49:47;24.60;99.90
8099;DHT22;4092;47.876;9.372;2023-05-27T12:52:14;24.90;99.90
8099;DHT22;4092;47.876;9.372;2023-05-27T12:54:42;25.00;99.90
8099;DHT22;4092;47.876;9.372;2023-05-27T12:57:11;24.90;99.90
8099;DHT22;4092;47.876;9.372;2023-05-27T12:59:41;24.90;99.90
8099;DHT22;4092;47.876;9.372;2023-05-27T13:02:10;24.80;99.90
8099;DHT22;4092;47.876;9.372;2023-05-27T13:04:37;24.70;99.90
8099;DHT22;4092;47.876;9.372;2023-05-27T13:07:07;24.70;99.90
8099;DHT22;4092;47.876;9.372;2023-05-27T13:09:35;24.80;99.90
8099;DHT22;4092;47.876;9.372;2023-05-27T13:12:03;24.90;99.90
8099;DHT22;4092;47.876;9.372;2023-05-27T13:14:33;25.00;99.70
8099;DHT22;4092;47.876;9.372;2023-05-27T13:17:03;25.00;98.20
8099;DHT22;4092;47.876;9.372;2023-05-27T13:19:32;25.10;98.50
8099;DHT22;4092;47.876;9.372;2023-05-27T13:22:00;25.20;99.60
8099;DHT22;4092;47.876;9.372;2023-05-27T13:24:29;25.20;99.90
8099;DHT22;4092;47.876;9.372;2023-05-27T13:26:57;25.50;99.40
8099;DHT22;4092;47.876;9.372;2023-05-27T13:29:25;25.40;98.60
8099;DHT22;4092;47.876;9.372;2023-05-27T13:31:54;25.40;98.20
8099;DHT22;4092;47.876;9.372;2023-05-27T13:34:22;25.40;97.70
8099;DHT22;4092;47.876;9.372;2023-05-27T13:36:49;25.40;98.20
8099;DHT22;4092;47.876;9.372;2023-05-27T13:39:17;25.60;98.60
8099;DHT22;4092;47.876;9.372;2023-05-27T13:41:44;25.70;98.00
8099;DHT22;4092;47.876;9.372;2023-05-27T13:44:11;25.40;98.50
8099;DHT22;4092;47.876;9.372;2023-05-27T13:46:38;25.30;97.40
8099;DHT22;4092;47.876;9.372;2023-05-27T13:49:09;25.60;98.50
8099;DHT22;4092;47.876;9.372;2023-05-27T13:51:43;25.60;98.30
8099;DHT22;4092;47.876;9.372;2023-05-27T13:54:11;25.50;97.00
8099;DHT22;4092;47.876;9.372;2023-05-27T13:56:39;25.50;96.60
8099;DHT22;4092;47.876;9.372;2023-05-27T13:59:06;25.50;97.20
8099;DHT22;4092;47.876;9.372;2023-05-27T14:01:36;25.80;97.90
8099;DHT22;4092;47.876;9.372;2023-05-27T14:04:07;25.90;95.90
8099;DHT22;4092;47.876;9.372;2023-05-27T14:06:44;26.10;95.40
8099;DHT22;4092;47.876;9.372;2023-05-27T14:09:14;26.20;95.30
8099;DHT22;4092;47.876;9.372;2023-05-27T14:11:41;26.30;95.70
8099;DHT22;4092;47.876;9.372;2023-05-27T14:14:08;26.50;95.10
8099;DHT22;4092;47.876;9.372;2023-05-27T14:16:37;26.60;95.00
8099;DHT22;4092;47.876;9.372;2023-05-27T14:19:04;26.60;95.40
8099;DHT22;4092;47.876;9.372;2023-05-27T14:21:35;26.70;95.20
8099;DHT22;4092;47.876;9.372;2023-05-27T14:24:02;26.60;94.90
8099;DHT22;4092;47.876;9.372;2023-05-27T14:26:31;26.80;95.90
8099;DHT22;4092;47.876;9.372;2023-05-27T14:28:58;26.70;95.60
8099;DHT22;4092;47.876;9.372;2023-05-27T14:31:25;26.70;94.80
8099;DHT22;4092;47.876;9.372;2023-05-27T14:33:52;26.70;94.10
8099;DHT22;4092;47.876;9.372;2023-05-27T14:36:22;26.70;94.20
8099;DHT22;4092;47.876;9.372;2023-05-27T14:38:50;26.80;93.70
8099;DHT22;4092;47.876;9.372;2023-05-27T14:41:17;26.60;93.50
8099;DHT22;4092;47.876;9.372;2023-05-27T14:43:46;26.70;94.10
8099;DHT22;4092;47.876;9.372;2023-05-27T14:46:16;26.90;94.60
8099;DHT22;4092;47.876;9.372;2023-05-27T14:48:43;26.90;94.80
8099;DHT22;4092;47.876;9.372;2023-05-27T14:51:10;26.70;93.90
8099;DHT22;4092;47.876;9.372;2023-05-27T14:53:37;26.70;93.40
8099;DHT22;4092;47.876;9.372;2023-05-27T14:56:06;26.30;93.90
8099;DHT22;4092;47.876;9.372;2023-05-27T14:58:36;26.40;93.90
8099;DHT22;4092;47.876;9.372;2023-05-27T15:01:06;26.80;94.50
8099;DHT22;4092;47.876;9.372;2023-05-27T15:03:34;27.00;93.70
8099;DHT22;4092;47.876;9.372;2023-05-27T15:06:01;27.30;93.40
8099;DHT22;4092;47.876;9.372;2023-05-27T15:08:29;27.30;92.50
8099;DHT22;4092;47.876;9.372;2023-05-27T15:10:58;27.30;93.10
8099;DHT22;4092;47.876;9.372;2023-05-27T15:13:30;27.20;92.80
8099;DHT22;4092;47.876;9.372;2023-05-27T15:16:00;27.10;93.20
8099;DHT22;4092;47.876;9.372;2023-05-27T15:18:28;27.20;92.60
8099;DHT22;4092;47.876;9.372;2023-05-27T15:20:55;27.20;92.40
8099;DHT22;4092;47.876;9.372;2023-05-27T15:23:22;27.10;92.70
8099;DHT22;4092;47.876;9.372;2023-05-27T15:25:50;26.90;92.30
8099;DHT22;4092;47.876;9.372;2023-05-27T15:28:19;27.00;92.70
8099;DHT22;4092;47.876;9.372;2023-05-27T15:30:47;26.90;92.10
8099;DHT22;4092;47.876;9.372;2023-05-27T15:33:14;26.90;91.60
8099;DHT22;4092;47.876;9.372;2023-05-27T15:35:41;26.90;91.80
8099;DHT22;4092;47.876;9.372;2023-05-27T15:38:09;26.70;90.60
8099;DHT22;4092;47.876;9.372;2023-05-27T15:40:40;26.70;90.90
8099;DHT22;4092;47.876;9.372;2023-05-27T15:43:10;26.70;91.00
8099;DHT22;4092;47.876;9.372;2023-05-27T15:45:38;26.50;91.10
8099;DHT22;4092;47.876;9.372;2023-05-27T15:48:07;26.70;91.80
8099;DHT22;4092;47.876;9.372;2023-05-27T15:50:36;26.70;91.80
8099;DHT22;4092;47.876;9.372;2023-05-27T15:53:03;26.60;91.30
8099;DHT22;4092;47.876;9.372;2023-05-27T15:55:31;26.40;90.70
8099;DHT22;4092;47.876;9.372;2023-05-27T15:57:58;26.20;91.20
8099;DHT22;4092;47.876;9.372;2023-05-27T16:00:25;26.30;90.80
8099;DHT22;4092;47.876;9.372;2023-05-27T16:02:53;26.10;90.50
8099;DHT22;4092;47.876;9.372;2023-05-27T16:05:22;26.00;91.00
8099;DHT22;4092;47.876;9.372;2023-05-27T16:07:50;26.00;90.40
8099;DHT22;4092;47.876;9.372;2023-05-27T16:10:18;26.00;91.30